Weather History for Tahlequah, OK

Change the Weather History Date:

Monday, March 4, 2013

  Actual Average (KMKO) Record (KMKO)
Temperature  
Mean Temperature 56 °F -  
Max Temperature 69 °F 54 °F 73 °F (1997)
Min Temperature 44 °F 32 °F 6 °F (2002)
Degree Days  
Heating Degree Days 8    
Growing Degree Days 6 (Base 50)    
Moisture  
Dew Point 39 °F    
Average Humidity 56    
Maximum Humidity 76    
Minimum Humidity 35    
Precipitation  
Precipitation 0.00 in - - ()
Sea Level Pressure  
Sea Level Pressure 29.67 in    
Wind  
Wind Speed 11 mph (SSE)    
Max Wind Speed 23 mph    
Max Gust Speed 29 mph    
Visibility 10 miles    
Events      
Averages and records for this station are not official NWS values.
T = Trace of Precipitation, MM = Missing Value Source: NWS Daily Summary

Daily Weather History Graph

Daily Weather History Graph

Search for Another Location

Airport:

Trip Planner

Search our weather history database for the weather conditions in past years. The results will help you decide how hot, cold, wet, or windy it might be!

Date:

Astronomy

Mar. 04, 2013 Rise Set
Actual Time 6:45 AM CST 6:18 PM CST
Civil Twilight 6:20 AM CST 6:43 PM CST
Nautical Twilight 5:50 AM CST 7:13 PM CST
Astronomical Twilight 5:20 AM CST 7:43 PM CST
Moon 12:48 AM CST (3/4) 11:08 AM CST (3/4)
Length of Visible Light 12h 23m
Length of Day
11h 32m
Waning Gibbous, 52% of the Moon is Illuminated
Mar 4
Waning Gibbous
Mar 4
Last Quarter
Mar 11
New
Mar 19
First Quarter
Mar 27
Full

Hourly Weather History & Observations

Time (CST) Temp. Windchill Dew Point Humidity Pressure Visibility Wind Dir Wind Speed Gust Speed Precip Events Conditions
12:15 AM 48.2 °F - 32.0 °F 54% 29.74 in 10.0 mi SE 12.7 mph 18.4 mph N/A   Clear
12:35 AM 48.2 °F - 32.0 °F 54% 29.74 in 10.0 mi SE 10.4 mph - N/A   Clear
12:55 AM 48.2 °F - 32.0 °F 54% 29.73 in 10.0 mi SE 11.5 mph - N/A   Clear
1:15 AM 46.4 °F 41.9 °F 32.0 °F 57% 29.72 in 10.0 mi SSE 9.2 mph 17.3 mph N/A   Clear
2:15 AM 48.2 °F - 32.0 °F 54% 29.68 in 10.0 mi SSE 13.8 mph 21.9 mph N/A   Clear
2:35 AM 50.0 °F - 32.0 °F 50% 29.68 in 10.0 mi SSE 17.3 mph 25.3 mph N/A   Clear
2:55 AM 50.0 °F - 32.0 °F 50% 29.67 in 10.0 mi SSE 13.8 mph 24.2 mph N/A   Clear
3:35 AM 50.0 °F - 33.8 °F 54% 29.66 in 10.0 mi SSE 13.8 mph 19.6 mph N/A   Clear
3:55 AM 50.0 °F - 33.8 °F 54% 29.66 in 10.0 mi SSE 15.0 mph 20.7 mph N/A   Clear
4:15 AM 50.0 °F - 33.8 °F 54% 29.66 in 10.0 mi SSE 13.8 mph 23.0 mph N/A   Clear
4:35 AM 50.0 °F - 33.8 °F 54% 29.66 in 10.0 mi SSE 11.5 mph 18.4 mph N/A   Clear
4:55 AM 48.2 °F - 33.8 °F 58% 29.66 in 10.0 mi SSE 10.4 mph 17.3 mph N/A   Clear
5:15 AM 48.2 °F - 33.8 °F 58% 29.65 in 10.0 mi SSE 11.5 mph 17.3 mph N/A   Clear
5:35 AM 48.2 °F - 33.8 °F 58% 29.65 in 10.0 mi SSE 10.4 mph 17.3 mph N/A   Clear
6:15 AM 46.4 °F 42.4 °F 35.6 °F 66% 29.65 in 10.0 mi SSE 8.1 mph - N/A   Clear
6:35 AM 46.4 °F 41.9 °F 35.6 °F 66% 29.65 in 10.0 mi SSE 9.2 mph - N/A   Clear
6:55 AM 46.4 °F 41.5 °F 35.6 °F 66% 29.64 in 10.0 mi SSE 10.4 mph 16.1 mph N/A   Clear
7:15 AM 46.4 °F 41.5 °F 35.6 °F 66% 29.64 in 10.0 mi SSE 10.4 mph 16.1 mph N/A   Clear
7:35 AM 48.2 °F - 35.6 °F 62% 29.64 in 10.0 mi SE 11.5 mph - N/A   Clear
7:55 AM 50.0 °F - 37.4 °F 62% 29.65 in 10.0 mi SE 9.2 mph 16.1 mph N/A   Clear
8:15 AM 50.0 °F - 37.4 °F 62% 29.66 in 10.0 mi SSE 8.1 mph - N/A   Clear
8:35 AM 51.8 °F - 37.4 °F 58% 29.66 in 10.0 mi SE 9.2 mph - N/A   Clear
8:55 AM 53.6 °F - 39.2 °F 58% 29.66 in 10.0 mi SSE 11.5 mph 16.1 mph N/A   Clear
9:15 AM 53.6 °F - 41.0 °F 62% 29.66 in 10.0 mi South 11.5 mph 18.4 mph N/A   Clear
9:35 AM 55.4 °F - 41.0 °F 58% 29.66 in 10.0 mi South 10.4 mph 16.1 mph N/A   Clear
9:55 AM 55.4 °F - 41.0 °F 58% 29.66 in 10.0 mi SSE 13.8 mph 20.7 mph N/A   Clear
10:15 AM 57.2 °F - 41.0 °F 55% 29.66 in 10.0 mi SSE 13.8 mph 20.7 mph N/A   Clear
10:35 AM 59.0 °F - 41.0 °F 51% 29.65 in 10.0 mi SSE 11.5 mph 18.4 mph N/A   Clear
10:55 AM 59.0 °F - 42.8 °F 55% 29.64 in 10.0 mi SSE 13.8 mph 19.6 mph N/A   Clear
11:15 AM 60.8 °F - 42.8 °F 52% 29.64 in 10.0 mi South 12.7 mph 17.3 mph N/A   Clear
11:35 AM 60.8 °F - 42.8 °F 52% 29.64 in 10.0 mi SSE 10.4 mph 20.7 mph N/A   Clear
11:55 AM 62.6 °F - 42.8 °F 48% 29.63 in 10.0 mi SSE 11.5 mph 16.1 mph N/A   Clear
12:15 PM 62.6 °F - 42.8 °F 48% 29.63 in 10.0 mi SSE 11.5 mph - N/A   Clear
12:35 PM 62.6 °F - 42.8 °F 48% 29.63 in 10.0 mi South 9.2 mph 18.4 mph N/A   Scattered Clouds
12:55 PM 64.4 °F - 42.8 °F 45% 29.62 in 10.0 mi South 11.5 mph - N/A   Clear
1:15 PM 64.4 °F - 42.8 °F 45% 29.62 in 10.0 mi South 10.4 mph - N/A   Clear
1:35 PM 64.4 °F - 44.6 °F 49% 29.61 in 10.0 mi South 5.8 mph - N/A   Clear
1:55 PM 64.4 °F - 44.6 °F 49% 29.60 in 10.0 mi SSE 8.1 mph - N/A   Clear
2:15 PM 66.2 °F - 44.6 °F 46% 29.60 in 10.0 mi SSE 10.4 mph - N/A   Clear
2:35 PM 66.2 °F - 44.6 °F 46% 29.60 in 10.0 mi SSE 9.2 mph - N/A   Clear
2:55 PM 68.0 °F - 44.6 °F 43% 29.61 in 10.0 mi South 4.6 mph - N/A   Clear
3:15 PM 68.0 °F - 44.6 °F 43% 29.62 in 10.0 mi South 10.4 mph - N/A   Scattered Clouds
3:35 PM 68.0 °F - 44.6 °F 43% 29.62 in 10.0 mi SSE 10.4 mph - N/A   Scattered Clouds
3:55 PM 68.0 °F - 42.8 °F 40% 29.61 in 10.0 mi Calm Calm - N/A   Clear
4:15 PM 68.0 °F - 42.8 °F 40% 29.62 in 10.0 mi SSE 3.5 mph - N/A   Clear
4:35 PM 68.0 °F - 42.8 °F 40% 29.62 in 10.0 mi South 4.6 mph - N/A   Clear
4:55 PM 69.8 °F - 41.0 °F 35% 29.62 in 10.0 mi West 3.5 mph - N/A   Clear
5:15 PM 68.0 °F - 41.0 °F 37% 29.62 in 10.0 mi SW 3.5 mph - N/A   Clear
5:35 PM 68.0 °F - 39.2 °F 35% 29.63 in 10.0 mi WSW 3.5 mph - N/A   Clear
5:55 PM 64.4 °F - 39.2 °F 40% 29.64 in 10.0 mi Calm Calm - N/A   Clear
6:15 PM 62.6 °F - 41.0 °F 45% 29.65 in 10.0 mi Calm Calm - N/A   Clear
6:35 PM 59.0 °F - 42.8 °F 55% 29.67 in 10.0 mi Calm Calm - N/A   Clear
6:55 PM 53.6 °F - 42.8 °F 67% 29.67 in 10.0 mi Calm Calm - N/A   Clear
7:15 PM 51.8 °F - 41.0 °F 67% 29.68 in 10.0 mi Calm Calm - N/A   Clear
7:35 PM 50.0 °F - 41.0 °F 71% 29.68 in 10.0 mi Calm Calm - N/A   Clear
7:55 PM 51.8 °F - 41.0 °F 67% 29.69 in 10.0 mi Calm Calm - N/A   Clear
8:15 PM 50.0 °F - 41.0 °F 71% 29.70 in 10.0 mi Calm Calm - N/A   Clear
8:35 PM 50.0 °F - 41.0 °F 71% 29.71 in 10.0 mi Calm Calm - N/A   Clear
8:55 PM 50.0 °F - 41.0 °F 71% 29.73 in 10.0 mi NW 18.4 mph 25.3 mph N/A   Clear
9:15 PM 50.0 °F - 41.0 °F 71% 29.75 in 10.0 mi NNW 15.0 mph 19.6 mph N/A   Clear
9:35 PM 48.2 °F - 41.0 °F 76% 29.77 in 10.0 mi NNW 17.3 mph 23.0 mph N/A   Clear
9:55 PM 46.4 °F 40.4 °F 39.2 °F 76% 29.79 in 10.0 mi NNW 13.8 mph 18.4 mph N/A   Clear
10:15 PM 46.4 °F 39.0 °F 37.4 °F 71% 29.80 in 10.0 mi North 19.6 mph 23.0 mph N/A   Clear
10:55 PM 44.6 °F 35.9 °F 35.6 °F 71% 29.83 in 10.0 mi North 23.0 mph 28.8 mph N/A   Clear
11:15 PM 44.6 °F 36.6 °F 33.8 °F 66% 29.86 in 10.0 mi North 19.6 mph 27.6 mph N/A   Clear
11:35 PM 44.6 °F 37.4 °F 33.8 °F 66% 29.89 in 10.0 mi North 16.1 mph 23.0 mph N/A   Clear
11:55 PM 44.6 °F 38.4 °F 33.8 °F 66% 29.92 in 10.0 mi NNW 12.7 mph 25.3 mph N/A   Clear